Map

Track Data

SID SEASON NUMBER BASIN SUBBASIN NAME ISO_TIME NATURE LAT LON WMO_WIND WMO_PRES WMO_AGENCY TRACK_TYPE DIST2LAND LANDFALL IFLAG USA_AGENCY USA_ATCF_ID USA_LAT USA_LON USA_RECORD USA_STATUS USA_WIND USA_PRES USA_SSHS USA_R34_NE USA_R34_SE USA_R34_SW USA_R34_NW USA_R50_NE USA_R50_SE USA_R50_SW USA_R50_NW USA_R64_NE USA_R64_SE USA_R64_SW USA_R64_NW USA_POCI USA_ROCI USA_RMW USA_EYE TOKYO_LAT TOKYO_LON TOKYO_GRADE TOKYO_WIND TOKYO_PRES TOKYO_R50_DIR TOKYO_R50_LONG TOKYO_R50_SHORT TOKYO_R30_DIR TOKYO_R30_LONG TOKYO_R30_SHORT TOKYO_LAND CMA_LAT CMA_LON CMA_CAT CMA_WIND CMA_PRES HKO_LAT HKO_LON HKO_CAT HKO_WIND HKO_PRES NEWDELHI_LAT NEWDELHI_LON NEWDELHI_GRADE NEWDELHI_WIND NEWDELHI_PRES NEWDELHI_CI NEWDELHI_DP NEWDELHI_POCI REUNION_LAT REUNION_LON REUNION_TYPE REUNION_WIND REUNION_PRES REUNION_TNUM REUNION_CI REUNION_RMW REUNION_R34_NE REUNION_R34_SE REUNION_R34_SW REUNION_R34_NW REUNION_R50_NE REUNION_R50_SE REUNION_R50_SW REUNION_R50_NW REUNION_R64_NE REUNION_R64_SE REUNION_R64_SW REUNION_R64_NW BOM_LAT BOM_LON BOM_TYPE BOM_WIND BOM_PRES BOM_TNUM BOM_CI BOM_RMW BOM_R34_NE BOM_R34_SE BOM_R34_SW BOM_R34_NW BOM_R50_NE BOM_R50_SE BOM_R50_SW BOM_R50_NW BOM_R64_NE BOM_R64_SE BOM_R64_SW BOM_R64_NW BOM_ROCI BOM_POCI BOM_EYE BOM_POS_METHOD BOM_PRES_METHOD NADI_LAT NADI_LON NADI_CAT NADI_WIND NADI_PRES WELLINGTON_LAT WELLINGTON_LON WELLINGTON_WIND WELLINGTON_PRES DS824_LAT DS824_LON DS824_STAGE DS824_WIND DS824_PRES TD9636_LAT TD9636_LON TD9636_STAGE TD9636_WIND TD9636_PRES TD9635_LAT TD9635_LON TD9635_WIND TD9635_PRES TD9635_ROCI NEUMANN_LAT NEUMANN_LON NEUMANN_CLASS NEUMANN_WIND NEUMANN_PRES MLC_LAT MLC_LON MLC_CLASS MLC_WIND MLC_PRES USA_GUST BOM_GUST BOM_GUST_PER REUNION_GUST REUNION_GUST_PER USA_SEAHGT USA_SEARAD_NE USA_SEARAD_SE USA_SEARAD_SW USA_SEARAD_NW STORM_SPEED STORM_DIR
2020222N26149 2020 53 WP MM NOT_NAMED 2020-08-09 00:00:00 TS 25.9000 148.900 main 1316 1305 O_____________ jtwc_wp WP062020 25.9000 148.900 TD 25 1005 -1 5 281
2020222N26149 2020 53 WP MM NOT_NAMED 2020-08-09 03:00:00 TS 25.9477 148.638 main 1299 1278 P_____________ WP062020 25.9477 148.638 TD 30 1004 -1 5 283
2020222N26149 2020 53 WP MM NOT_NAMED 2020-08-09 06:00:00 TS 26.0000 148.400 main 1278 1258 O_____________ jtwc_wp WP062020 26.0000 148.400 TS 35 1004 0 1006 80 30 4 285
2020222N26149 2020 53 WP MM NOT_NAMED 2020-08-09 09:00:00 TS 26.0572 148.188 main 1258 1241 P_____________ WP062020 26.0572 148.188 TS 40 1002 0 1011 85 30 5 283
2020222N26149 2020 53 WP MM NOT_NAMED 2020-08-09 12:00:00 TS 26.1000 147.900 main 1241 1214 O_____________ jtwc_wp WP062020 26.1000 147.900 TS 45 1000 0 25 30 25 25 1016 90 30 7 274
2020222N26149 2020 53 WP MM NOT_NAMED 2020-08-09 15:00:00 TS 26.1004 147.415 main 1214 1187 P_____________ WP062020 26.1004 147.415 TS 42 1001 0 25 30 25 25 1016 95 25 9 270
2020222N26149 2020 53 WP MM NOT_NAMED 2020-08-09 18:00:00 TS 26.1000 146.900 main 1187 1171 O_____________ jtwc_wp WP062020 26.1000 146.900 TS 40 1003 0 25 30 25 25 1016 100 20 8 274
2020222N26149 2020 53 WP MM NOT_NAMED 2020-08-09 21:00:00 TS 26.1496 146.543 main 1166 1141 P_____________ WP062020 26.1496 146.543 TS 37 1004 0 30 35 30 30 1015 100 25 6 279
2020222N26149 2020 53 WP MM NOT_NAMED 2020-08-10 00:00:00 TS 26.2000 146.200 main 1141 1122 O_____________ jtwc_wp WP062020 26.2000 146.200 TS 35 1006 0 35 40 35 35 1015 100 30 7 274
2020222N26149 2020 53 WP MM NOT_NAMED 2020-08-10 03:00:00 TS 26.1999 145.772 main 1122 1099 P_____________ WP062020 26.1999 145.772 TS 32 1006 -1 1014 117 35 8 270
2020222N26149 2020 53 WP MM NOT_NAMED 2020-08-10 06:00:00 TS 26.2000 145.300 main 1099 1081 O_____________ jtwc_wp WP062020 26.2000 145.300 TD 30 1007 -1 1014 135 40 8 272
2020222N26149 2020 53 WP MM NOT_NAMED 2020-08-10 09:00:00 TS 26.2345 144.837 main 1077 1047 P_____________ WP062020 26.2345 144.837 TD 30 1007 -1 1014 125 40 9 275
2020222N26149 2020 53 WP MM NOT_NAMED 2020-08-10 12:00:00 TS 26.2800 144.260 main 1047 1022 O__O__________ jtwc_wp WP062020 26.3000 144.300 TD 30 1008 -1 1015 115 40 26.2000 144.100 TD 25 1010 12 275
2020222N26149 2020 53 WP MM NOT_NAMED 2020-08-10 15:00:00 TS 26.3421 143.520 main 1019 987 P__P__________ WP062020 26.4001 143.630 TD 27 1008 -1 1014 112 40 26.2262 143.300 TD 25 1010 13 276
2020222N26149 2020 53 WP MM NOT_NAMED 2020-08-10 18:00:00 TS 26.4143 142.771 main 987 957 O__O__________ jtwc_wp WP062020 26.5000 142.900 TD 25 1009 -1 1013 110 40 26.3000 142.600 TD 25 1010 13 277
2020222N26149 2020 53 WP MM NOT_NAMED 2020-08-10 21:00:00 TS 26.5072 142.116 main 957 931 P__P__________ WP062020 26.5651 142.170 TD 25 1010 -1 1014 117 40 26.4494 142.063 TD 25 1010 11 280
2020222N26149 2020 53 WP MM NOT_NAMED 2020-08-11 00:00:00 TS 26.6000 141.550 main 931 913 O__O__________ jtwc_wp WP062020 26.6000 141.500 TD 25 1011 -1 1015 125 40 26.6000 141.600 TD 25 1010 10 278
2020222N26149 2020 53 WP MM NOT_NAMED 2020-08-11 03:00:00 TS 26.6470 141.046 main 908 878 P__P__________ WP062020 26.6070 140.970 TD 25 1010 -1 1014 125 40 26.6871 141.123 TD 25 1010 9 273
2020222N26149 2020 53 WP MM NOT_NAMED 2020-08-11 06:00:00 TS 26.6500 140.550 main 878 863 O__O__________ jtwc_wp WP062020 26.6000 140.500 TD 25 1009 -1 1013 125 40 26.7000 140.600 TD 25 1010 9 268
2020222N26149 2020 53 WP MM NOT_NAMED 2020-08-11 09:00:00 TS 26.6106 140.024 main 859 833 P__P__________ WP062020 26.6065 140.060 TD 25 1008 -1 1013 125 32 26.6148 139.987 TD 25 1010 10 264
2020222N26149 2020 53 WP MM NOT_NAMED 2020-08-11 12:00:00 TS 26.5500 139.400 main 833 815 O__O__________ jtwc_wp WP062020 26.6000 139.500 TD 25 1008 -1 1013 125 25 26.5000 139.300 TD 25 1010 13 266
2020222N26149 2020 53 WP MM NOT_NAMED 2020-08-11 15:00:00 TS 26.5120 138.571 main 815 793 P__P__________ WP062020 26.5664 138.600 TD 25 1008 -1 1013 122 25 26.4577 138.543 TD 25 1010 15 266
2020222N26149 2020 53 WP MM NOT_NAMED 2020-08-11 18:00:00 TS 26.4500 137.750 main 793 792 O__O__________ jtwc_wp WP062020 26.5000 137.700 TD 25 1009 -1 1013 120 25 26.4000 137.800 TD 25 1010 13 263
2020222N26149 2020 53 WP MM NOT_NAMED 2020-08-11 21:00:00 TS 26.3541 137.167 main 792 774 P__P__________ WP062020 26.4288 137.163 TD 25 1009 -1 1013 127 30 26.2795 137.170 TD 25 1010 10 256
2020222N26149 2020 53 WP MM NOT_NAMED 2020-08-12 00:00:00 TS 26.2000 136.650 main 776 756 O__O__________ jtwc_wp WP062020 26.3000 136.700 TD 25 1010 -1 1013 135 35 26.1000 136.600 TD 25 1010 11 248
2020222N26149 2020 53 WP MM NOT_NAMED 2020-08-12 03:00:00 TS 25.9647 136.065 main 756 747 P__P__________ WP062020 26.0502 136.057 TD 25 1009 -1 1013 135 35 25.8793 136.073 TD 22 1011 12 245
2020222N26149 2020 53 WP MM NOT_NAMED 2020-08-12 06:00:00 TS 25.7000 135.450 main 751 734 O__O__________ jtwc_wp WP062020 25.8000 135.400 TD 25 1009 -1 1013 135 35 25.6000 135.500 LW 20 1012 12 246
2020222N26149 2020 53 WP MM NOT_NAMED 2020-08-12 09:00:00 TS 25.4783 134.830 main 733 727 P__P__________ WP062020 25.7290 134.882 TD 25 1008 -1 1013 135 37 25.2275 134.779 LW 20 1012 13 247
2020222N26149 2020 53 WP MM NOT_NAMED 2020-08-12 12:00:00 TS 25.2000 134.129 main 728 720 O__O__________ jtwc_wp WP062020 25.6000 134.300 TD 25 1007 -1 1013 135 40 24.9000 134.000 LW 20 1012 14 248
2020222N26149 2020 53 WP MM NOT_NAMED 2020-08-12 15:00:00 TS 24.9510 133.362 main 720 720 P__P__________ WP062020 25.2292 133.512 TD 25 1008 -1 1013 130 40 24.7655 133.261 LW 20 1012 15 251
2020222N26149 2020 53 WP MM NOT_NAMED 2020-08-12 18:00:00 TS 24.7000 132.533 main 725 720 O__O__________ jtwc_wp WP062020 24.7000 132.600 TD 25 1009 -1 1013 125 40 24.7000 132.500 LW 20 1012 15 257
2020222N26149 2020 53 WP MM NOT_NAMED 2020-08-12 21:00:00 NR 24.6000 131.700 main 721 ___O__________ WP062020 TD -5 24.6000 131.700 LW 20 1012 15 262

Digital Typhoon Data and Search

About IBTrACS Database

This database is a web-friendly format of International Best Track Archive for Climate Stewardship (IBTrACS), a global best track data archive curated by NOAA dating back to 1842.

Updated: 2022-08-12